createdAt,value
2022-11-28T00:00:39.950Z,4.03
2022-11-28T00:04:43.461Z,3.98
2022-11-28T00:08:47.508Z,3.93
2022-11-28T00:12:52.642Z,3.85
2022-11-28T00:16:56.060Z,3.77
2022-11-28T00:21:02.656Z,3.71
2022-11-28T00:25:06.263Z,3.65
2022-11-28T00:29:12.174Z,3.59
2022-11-28T00:33:15.281Z,3.54
2022-11-28T00:37:18.791Z,3.50
2022-11-28T00:41:24.287Z,3.50
2022-11-28T00:45:29.422Z,3.51
2022-11-28T00:49:32.538Z,3.51
2022-11-28T00:53:36.383Z,3.53
2022-11-28T00:57:40.163Z,3.52
2022-11-28T01:01:45.118Z,3.51
2022-11-28T01:05:48.863Z,3.50
2022-11-28T01:09:52.396Z,3.48
2022-11-28T01:13:57.050Z,3.46
2022-11-28T01:18:02.756Z,3.47
2022-11-28T01:22:06.970Z,3.50
2022-11-28T01:26:11.802Z,3.53
2022-11-28T01:30:15.873Z,3.62
2022-11-28T01:34:20.288Z,3.73
2022-11-28T01:38:24.317Z,3.84
2022-11-28T01:42:27.482Z,3.97
2022-11-28T01:46:32.173Z,4.09
2022-11-28T01:50:40.229Z,4.21
2022-11-28T01:54:47.871Z,4.32
2022-11-28T01:58:56.663Z,4.40
2022-11-28T02:03:04.826Z,4.48
2022-11-28T02:07:10.239Z,4.53
2022-11-28T02:11:38.176Z,4.59
2022-11-28T02:16:01.111Z,4.63
2022-11-28T02:20:51.528Z,4.67
2022-11-28T02:25:15.890Z,4.67
2022-11-28T02:29:52.418Z,4.69
2022-11-28T02:34:01.578Z,4.72
2022-11-28T02:42:49.383Z,4.74
2022-11-28T02:46:58.341Z,4.77
2022-11-28T02:51:11.081Z,4.79
2022-11-28T02:55:15.580Z,4.81
2022-11-28T02:59:46.502Z,4.84
2022-11-28T03:04:03.048Z,4.83
2022-11-28T03:08:24.167Z,4.77
2022-11-28T03:12:36.608Z,4.81
2022-11-28T03:16:49.822Z,4.81
2022-11-28T03:20:57.675Z,4.84
2022-11-28T03:25:12.405Z,4.83
2022-11-28T03:29:23.365Z,4.86
2022-11-28T03:33:29.814Z,4.89
2022-11-28T03:37:36.894Z,4.92
2022-11-28T03:41:46.957Z,4.97
2022-11-28T03:45:56.867Z,4.99
2022-11-28T03:50:06.698Z,5.00
2022-11-28T03:54:15.782Z,5.03
2022-11-28T03:58:27.001Z,5.06
2022-11-28T04:02:35.466Z,5.08
2022-11-28T04:06:52.529Z,5.08
2022-11-28T04:11:04.017Z,5.12
2022-11-28T04:15:15.531Z,5.16
2022-11-28T04:19:24.974Z,5.19
2022-11-28T04:23:29.347Z,5.22
2022-11-28T04:27:39.317Z,5.25
2022-11-28T04:31:46.681Z,5.26
2022-11-28T04:35:54.103Z,5.28
2022-11-28T04:39:58.624Z,5.29
2022-11-28T04:44:06.340Z,5.32
2022-11-28T04:48:11.721Z,5.34
2022-11-28T04:52:21.776Z,5.37
2022-11-28T04:56:31.614Z,5.40
2022-11-28T05:00:37.117Z,5.45
2022-11-28T05:04:44.381Z,5.46
2022-11-28T05:08:48.217Z,5.48
2022-11-28T05:12:51.670Z,5.49
2022-11-28T05:16:54.899Z,5.48
2022-11-28T05:21:02.083Z,5.47
2022-11-28T05:25:06.393Z,5.46
2022-11-28T05:29:10.142Z,5.45
2022-11-28T05:33:14.051Z,5.45
2022-11-28T05:37:18.453Z,5.45
2022-11-28T05:41:22.913Z,5.44
2022-11-28T05:45:26.459Z,5.44
2022-11-28T05:49:29.590Z,5.43
2022-11-28T05:53:36.522Z,5.43
2022-11-28T05:57:40.123Z,5.43
2022-11-28T06:01:43.255Z,5.40
2022-11-28T06:05:47.026Z,5.42
2022-11-28T06:09:52.054Z,5.42
2022-11-28T06:13:55.408Z,5.40
2022-11-28T06:17:58.975Z,5.40
2022-11-28T06:22:02.733Z,5.41
2022-11-28T06:26:08.969Z,5.41
2022-11-28T06:30:13.133Z,5.43
2022-11-28T06:34:16.576Z,5.44
2022-11-28T06:38:20.460Z,5.48
2022-11-28T06:42:25.147Z,5.51
2022-11-28T06:46:28.805Z,5.54
2022-11-28T06:50:34.333Z,5.58
2022-11-28T06:54:38.181Z,5.62
2022-11-28T06:58:43.082Z,5.64
2022-11-28T07:02:46.665Z,5.66
2022-11-28T07:06:50.237Z,5.69
2022-11-28T07:10:54.030Z,5.70
2022-11-28T07:14:59.355Z,5.75
2022-11-28T07:19:02.775Z,5.78
2022-11-28T07:23:07.189Z,5.80
2022-11-28T07:27:10.784Z,5.83
2022-11-28T07:31:19.027Z,5.87
2022-11-28T07:35:22.333Z,5.89
2022-11-28T07:39:25.939Z,5.92
2022-11-28T07:43:29.466Z,5.93
2022-11-28T07:47:35.627Z,5.99
2022-11-28T07:51:39.031Z,6.00
2022-11-28T07:55:42.652Z,6.02
2022-11-28T07:59:46.343Z,6.00
2022-11-28T08:03:51.535Z,6.00
2022-11-28T08:07:55.209Z,5.97
2022-11-28T08:12:00.422Z,5.96
2022-11-28T08:16:07.152Z,5.97
2022-11-28T08:20:17.057Z,5.90
2022-11-28T08:24:20.144Z,6.07
2022-11-28T08:28:23.662Z,6.17
2022-11-28T08:32:27.567Z,6.28
2022-11-28T08:36:32.198Z,6.38
2022-11-28T08:40:35.827Z,6.44
2022-11-28T08:44:38.885Z,6.49
2022-11-28T08:48:43.153Z,6.55
2022-11-28T08:52:48.140Z,6.62
2022-11-28T08:56:51.751Z,6.68
2022-11-28T09:00:54.929Z,6.76
2022-11-28T09:04:59.585Z,6.69
2022-11-28T09:09:05.501Z,6.84
2022-11-28T09:13:10.434Z,6.84
2022-11-28T09:17:16.028Z,6.86
2022-11-28T09:21:19.639Z,6.88
2022-11-28T09:25:24.722Z,6.91
2022-11-28T09:29:29.940Z,6.92
2022-11-28T09:33:33.287Z,6.98
2022-11-28T09:37:36.824Z,7.02
2022-11-28T09:41:59.757Z,7.12
2022-11-28T09:46:04.530Z,7.22
2022-11-28T09:50:16.015Z,7.21
2022-11-28T09:54:22.593Z,7.36
2022-11-28T09:58:35.054Z,7.41
2022-11-28T10:02:50.394Z,7.43
2022-11-28T10:07:02.958Z,7.47
2022-11-28T10:11:21.744Z,7.50
2022-11-28T10:15:47.849Z,7.51
2022-11-28T10:19:56.056Z,7.60
2022-11-28T10:24:04.251Z,7.67
2022-11-28T10:28:11.444Z,7.73
2022-11-28T10:32:18.642Z,7.80
2022-11-28T10:36:26.607Z,7.85
2022-11-28T10:40:41.884Z,7.90
2022-11-28T10:45:16.347Z,8.05
2022-11-28T10:49:30.734Z,8.16
2022-11-28T10:53:46.761Z,8.19
2022-11-28T10:58:03.294Z,8.19
2022-11-28T11:02:32.719Z,8.18
2022-11-28T11:06:47.819Z,8.13
2022-11-28T11:11:04.570Z,8.20
2022-11-28T11:15:19.005Z,8.26
2022-11-28T11:19:27.940Z,8.26
2022-11-28T11:23:37.951Z,8.29
2022-11-28T11:27:50.060Z,8.32
2022-11-28T11:31:54.660Z,8.33
2022-11-28T11:35:58.566Z,8.36
2022-11-28T11:40:06.221Z,8.37
2022-11-28T11:44:35.789Z,8.49
2022-11-28T11:48:41.173Z,8.56
2022-11-28T11:52:45.086Z,8.61
2022-11-28T11:57:05.832Z,8.64
2022-11-28T12:01:19.683Z,8.67
2022-11-28T12:05:27.825Z,8.75
2022-11-28T12:09:38.209Z,8.79
2022-11-28T12:13:42.864Z,8.82
2022-11-28T12:17:59.047Z,8.84
2022-11-28T12:22:13.433Z,8.91
2022-11-28T12:26:23.053Z,8.98
2022-11-28T12:30:40.491Z,9.05
2022-11-28T12:34:55.009Z,9.11
2022-11-28T12:39:16.588Z,9.16
2022-11-28T12:43:36.391Z,9.17
2022-11-28T12:47:48.816Z,9.27
2022-11-28T12:56:13.349Z,9.38
2022-11-28T13:00:20.075Z,9.40
2022-11-28T13:04:50.942Z,9.40
2022-11-28T13:09:05.353Z,9.36
2022-11-28T13:13:14.090Z,9.33
2022-11-28T13:17:31.837Z,9.27
2022-11-28T13:21:45.389Z,9.25
2022-11-28T13:25:55.108Z,9.23
2022-11-28T13:30:07.501Z,9.20
2022-11-28T13:34:17.428Z,9.17
2022-11-28T13:38:37.276Z,9.11
2022-11-28T13:43:04.412Z,9.05
2022-11-28T13:47:29.049Z,8.99
2022-11-28T13:51:34.478Z,8.95
2022-11-28T13:55:48.410Z,8.92
2022-11-28T13:59:59.134Z,8.89
2022-11-28T14:04:10.582Z,8.85
2022-11-28T14:08:29.505Z,8.82
2022-11-28T14:12:45.623Z,8.79
2022-11-28T14:17:03.394Z,8.75
2022-11-28T14:21:13.770Z,8.72
2022-11-28T14:25:22.015Z,8.65
2022-11-28T14:29:37.318Z,8.59
2022-11-28T14:33:42.612Z,8.53
2022-11-28T14:37:54.226Z,8.49
2022-11-28T14:42:59.070Z,8.43
2022-11-28T14:47:15.654Z,8.37
2022-11-28T14:51:19.567Z,8.31
2022-11-28T14:55:23.778Z,8.26
2022-11-28T14:59:32.074Z,8.20
2022-11-28T15:03:47.227Z,8.14
2022-11-28T15:08:12.225Z,8.06
2022-11-28T15:12:23.106Z,7.95
2022-11-28T15:16:29.661Z,7.86
2022-11-28T15:20:39.466Z,7.80
2022-11-28T15:24:42.701Z,7.71
2022-11-28T15:28:46.124Z,7.64
2022-11-28T15:32:49.687Z,7.57
2022-11-28T15:36:56.356Z,7.52
2022-11-28T15:41:01.411Z,7.45
2022-11-28T15:45:10.124Z,7.41
2022-11-28T15:49:25.391Z,7.38
2022-11-28T15:53:31.241Z,7.34
2022-11-28T15:57:34.766Z,7.32
2022-11-28T16:01:38.588Z,7.31
2022-11-28T16:05:43.939Z,7.30
2022-11-28T16:10:00.445Z,7.31
2022-11-28T16:14:09.957Z,7.30
2022-11-28T16:18:16.723Z,7.29
2022-11-28T16:22:22.573Z,7.28
2022-11-28T16:26:48.328Z,7.29
2022-11-28T16:30:52.639Z,7.28
2022-11-28T16:35:00.804Z,7.26
2022-11-28T16:39:11.320Z,7.25
2022-11-28T16:43:26.220Z,7.24
2022-11-28T16:47:33.372Z,7.23
2022-11-28T16:51:39.724Z,7.21
2022-11-28T16:55:46.932Z,7.20
2022-11-28T16:59:53.101Z,7.17
2022-11-28T17:03:58.562Z,7.12
2022-11-28T17:08:02.840Z,7.05
2022-11-28T17:12:10.029Z,6.97
2022-11-28T17:16:20.341Z,6.90
2022-11-28T17:20:24.456Z,6.81
2022-11-28T17:24:31.553Z,6.73
2022-11-28T17:28:34.865Z,6.65
2022-11-28T17:32:40.048Z,6.59
2022-11-28T17:36:43.839Z,6.52
2022-11-28T17:40:47.431Z,6.47
2022-11-28T17:44:50.565Z,6.42
2022-11-28T17:48:57.925Z,6.39
2022-11-28T17:53:01.501Z,6.37
2022-11-28T17:57:05.164Z,6.36
2022-11-28T18:01:11.584Z,6.35
2022-11-28T18:05:16.879Z,6.33
2022-11-28T18:09:20.398Z,6.32
2022-11-28T18:13:24.586Z,6.32
2022-11-28T18:17:27.739Z,6.32
2022-11-28T18:21:32.859Z,6.33
2022-11-28T18:25:36.470Z,6.32
2022-11-28T18:29:40.160Z,6.34
2022-11-28T18:33:43.662Z,6.34
2022-11-28T18:37:49.074Z,6.34
2022-11-28T18:41:53.548Z,6.34
2022-11-28T18:45:59.736Z,6.33
2022-11-28T18:50:03.108Z,6.31
2022-11-28T18:54:08.207Z,6.29
2022-11-28T18:58:13.563Z,6.27
2022-11-28T19:02:17.273Z,6.24
2022-11-28T19:06:22.285Z,6.18
2022-11-28T19:10:27.060Z,6.24
2022-11-28T19:14:30.586Z,6.22
2022-11-28T19:18:33.967Z,6.23
2022-11-28T19:22:37.485Z,6.26
2022-11-28T19:26:41.950Z,6.26
2022-11-28T19:30:46.197Z,6.24
2022-11-28T19:34:52.889Z,6.31
2022-11-28T19:38:57.886Z,6.33
2022-11-28T19:43:04.749Z,6.34
2022-11-28T19:47:08.267Z,6.36
2022-11-28T19:51:13.974Z,6.36
2022-11-28T19:55:18.870Z,6.30
2022-11-28T19:59:25.387Z,6.36
2022-11-28T20:03:29.255Z,6.36
2022-11-28T20:07:32.608Z,6.34
2022-11-28T20:11:37.100Z,6.33
2022-11-28T20:15:42.280Z,6.31
2022-11-28T20:19:46.101Z,6.28
2022-11-28T20:23:52.186Z,6.22
2022-11-28T20:27:55.542Z,6.20
2022-11-28T20:32:00.552Z,6.14
2022-11-28T20:36:08.134Z,6.10
2022-11-28T20:40:13.086Z,6.04
2022-11-28T20:44:17.768Z,5.88
2022-11-28T20:48:22.834Z,5.94
2022-11-28T20:52:26.872Z,5.88
2022-11-28T20:56:41.789Z,5.81
2022-11-28T21:00:55.408Z,5.79
2022-11-28T21:05:01.017Z,5.76
2022-11-28T21:09:04.827Z,5.74
2022-11-28T21:13:08.300Z,5.71
2022-11-28T21:17:11.808Z,5.68
2022-11-28T21:21:34.094Z,5.66
2022-11-28T21:25:39.863Z,5.59
2022-11-28T21:29:44.132Z,5.62
2022-11-28T21:33:51.802Z,5.52
2022-11-28T21:37:57.305Z,5.60
2022-11-28T21:42:00.758Z,5.63
2022-11-28T21:46:05.489Z,5.66
2022-11-28T21:50:10.050Z,5.68
2022-11-28T21:54:16.090Z,5.70
2022-11-28T21:58:23.734Z,5.59
2022-11-28T22:06:54.611Z,5.73
2022-11-28T22:11:01.326Z,5.76
2022-11-28T22:15:04.886Z,5.77
2022-11-28T22:19:08.460Z,5.79
2022-11-28T22:23:12.185Z,5.81
2022-11-28T22:27:17.221Z,5.82
2022-11-28T22:31:20.901Z,5.80
2022-11-28T22:35:24.975Z,5.84
2022-11-28T22:39:28.541Z,5.78
2022-11-28T22:43:33.068Z,5.84
2022-11-28T22:47:36.660Z,5.79
2022-11-28T22:51:41.177Z,5.84
2022-11-28T22:55:44.700Z,5.82
2022-11-28T22:59:49.603Z,5.75
2022-11-28T23:03:53.451Z,5.80
2022-11-28T23:07:57.053Z,5.80
2022-11-28T23:12:01.920Z,5.80
2022-11-28T23:16:15.793Z,5.82
2022-11-28T23:20:20.800Z,5.84
2022-11-28T23:24:24.711Z,5.85
2022-11-28T23:28:30.066Z,5.88
2022-11-28T23:32:35.056Z,5.90
2022-11-28T23:36:42.416Z,5.87
2022-11-28T23:40:46.224Z,5.91
2022-11-28T23:44:49.983Z,5.92
2022-11-28T23:48:55.099Z,5.92
2022-11-28T23:52:58.168Z,5.89
2022-11-28T23:57:01.734Z,5.88
